»·PEaware :: DAL1596 KSLC-KDEN

DAL1596 :: KSLC-KDEN

FLIGHT INFORMATION

Flight Status: Arrived
Operator:
Delta Air Lines
More flights by this operator :: More flights under this callsign
Pilot: Andrew C. (32327)
Aircraft: BOEING 737-800
(B738)
More flights by this aircraft type
Origin: KSLC Salt Lake City Intl
United States
Destination: KDEN Denver Intl
United States
More flights between these airports :: More routes between these airports
Route: +RUGGD1 PERTY KAMPR LONGZ1
File this flight plan on PilotEdge
Remarks:
Altitude:
(Current/Filed)
37,000ft
Speed:
(Current/Filed)
520kts
Departed: 08-Nov-20 01:22 PM
Arrived: 08-Nov-20 02:21 PM
Distance/Time
Traveled:
339nm/0:59
Distance/Time
To Go:
Arrived

Flight Plot

Page will automatically refresh every two minutes.

Flight plan parsing failed; only flown route is shown


Map Options




Map Legend


Flown Route
Filed Route
Departure Airport
Arrival Airport
Navaid (VOR, NDB)
Fix

Horizontal Profiles

Position Reports

Time Latitude Longitude Heading Altitude Ground
Speed
08-Nov-20 12:54 40.785565 -111.978041 227 4229ft 0kts
08-Nov-20 12:55 40.785565 -111.978041 227 4229ft 0kts
08-Nov-20 12:56 40.785565 -111.978041 227 4228ft 0kts
08-Nov-20 12:57 40.785565 -111.978041 227 4228ft 0kts
08-Nov-20 12:58 40.785565 -111.978041 227 4228ft 0kts
08-Nov-20 12:59 40.785565 -111.978041 227 4228ft 0kts
08-Nov-20 13:00 40.785565 -111.978041 227 4228ft 0kts
08-Nov-20 13:01 40.785565 -111.978041 227 4228ft 0kts
08-Nov-20 13:02 40.785565 -111.978041 227 4228ft 0kts
08-Nov-20 13:03 40.785565 -111.978041 227 4228ft 0kts
08-Nov-20 13:04 40.785565 -111.978041 227 4228ft 0kts
08-Nov-20 13:05 40.785565 -111.978041 227 4228ft 0kts
08-Nov-20 13:06 40.785565 -111.978041 227 4228ft 0kts
08-Nov-20 13:07 40.785565 -111.978041 227 4228ft 0kts
08-Nov-20 13:07 40.785565 -111.978041 227 4228ft 0kts
08-Nov-20 13:09 40.785565 -111.978041 227 4228ft 0kts
08-Nov-20 13:09 40.785565 -111.978041 227 4228ft 0kts
08-Nov-20 13:11 40.785714 -111.977827 227 4228ft 0kts
08-Nov-20 13:11 40.786132 -111.977763 139 4227ft 2kts
08-Nov-20 13:13 40.786245 -111.978147 88 4227ft 0kts
08-Nov-20 13:13 40.786245 -111.978147 88 4227ft 0kts
08-Nov-20 13:14 40.786245 -111.978147 88 4227ft 0kts
08-Nov-20 13:15 40.786245 -111.978147 88 4227ft 0kts
08-Nov-20 13:16 40.786160 -111.976826 134 4227ft 0kts
08-Nov-20 13:17 40.783669 -111.976332 173 4229ft 19kts
08-Nov-20 13:18 40.776690 -111.975516 174 4229ft 26kts
08-Nov-20 13:19 40.774548 -111.974550 104 4229ft 0kts
08-Nov-20 13:20 40.775513 -111.973274 0 4229ft 0kts
08-Nov-20 13:21 40.797135 -111.975760 355 4433ft 178kts
08-Nov-20 13:22 40.842439 -112.014748 306 6542ft 241kts
08-Nov-20 13:23 40.882959 -112.088059 305 9274ft 257kts
08-Nov-20 13:24 40.938236 -112.153672 351 11761ft 285kts
08-Nov-20 13:25 41.001975 -112.086316 50 13091ft 351kts
08-Nov-20 13:26 41.062058 -111.976425 65 15283ft 381kts
08-Nov-20 13:27 41.106561 -111.846216 76 17725ft 394kts
08-Nov-20 13:28 41.091801 -111.708357 126 19997ft 386kts
08-Nov-20 13:29 41.027866 -111.593743 133 22123ft 391kts
08-Nov-20 13:30 40.958938 -111.480102 134 22700ft 392kts
08-Nov-20 13:31 40.905631 -111.351166 110 23813ft 420kts
08-Nov-20 13:32 40.885634 -111.196157 105 25455ft 437kts
08-Nov-20 13:33 40.866697 -111.036583 105 27219ft 441kts
08-Nov-20 13:34 40.847484 -110.876292 105 28942ft 443kts
08-Nov-20 13:35 40.828037 -110.715660 106 30588ft 442kts
08-Nov-20 13:36 40.808468 -110.556142 106 32122ft 441kts
08-Nov-20 13:37 40.788643 -110.396603 106 33509ft 440kts
08-Nov-20 13:38 40.768759 -110.237973 107 34828ft 437kts
08-Nov-20 13:39 40.748735 -110.080257 107 35989ft 434kts
08-Nov-20 13:40 40.734790 -109.921342 102 36746ft 445kts
08-Nov-20 13:41 40.723464 -109.754186 102 36744ft 472kts
08-Nov-20 13:42 40.711693 -109.580394 102 36742ft 476kts
08-Nov-20 13:43 40.699734 -109.407544 102 36743ft 473kts
08-Nov-20 13:44 40.687548 -109.234848 103 36743ft 473kts
08-Nov-20 13:45 40.675048 -109.061737 103 36743ft 476kts
08-Nov-20 13:46 40.663135 -108.888262 102 36741ft 477kts
08-Nov-20 13:47 40.651700 -108.714423 102 36738ft 478kts
08-Nov-20 13:48 40.640152 -108.539502 103 36756ft 481kts
08-Nov-20 13:49 40.628338 -108.363574 103 36742ft 482kts
08-Nov-20 13:50 40.616425 -108.188542 104 36746ft 481kts
08-Nov-20 13:51 40.604119 -108.012696 104 36759ft 483kts
08-Nov-20 13:52 40.591572 -107.837347 105 36761ft 483kts
08-Nov-20 13:53 40.578698 -107.661775 105 36761ft 481kts
08-Nov-20 13:54 40.564536 -107.487677 105 36771ft 480kts
08-Nov-20 13:55 40.550970 -107.313200 106 36771ft 478kts
08-Nov-20 13:56 40.537548 -107.139291 106 36761ft 477kts
08-Nov-20 13:57 40.524195 -106.968818 106 36753ft 466kts
08-Nov-20 13:58 40.510499 -106.798578 106 36633ft 474kts
08-Nov-20 13:59 40.496186 -106.623242 107 33775ft 488kts
08-Nov-20 14:00 40.480681 -106.446222 107 30735ft 489kts
08-Nov-20 14:01 40.464565 -106.272248 107 28600ft 469kts
08-Nov-20 14:02 40.449432 -106.105616 106 26524ft 453kts
08-Nov-20 14:03 40.435166 -105.944218 106 24453ft 440kts
08-Nov-20 14:04 40.413137 -105.790484 110 22372ft 423kts
08-Nov-20 14:05 40.389498 -105.640601 109 20199ft 415kts
08-Nov-20 14:06 40.366035 -105.494410 108 18102ft 405kts
08-Nov-20 14:07 40.343721 -105.355268 107 17006ft 369kts
08-Nov-20 14:08 40.326352 -105.225829 106 15530ft 356kts
08-Nov-20 14:09 40.309260 -105.099845 105 13896ft 347kts
08-Nov-20 14:10 40.293075 -104.981533 104 13174ft 306kts
08-Nov-20 14:11 40.278569 -104.877398 103 12210ft 287kts
08-Nov-20 14:12 40.263897 -104.775012 109 11066ft 282kts
08-Nov-20 14:13 40.226497 -104.696661 151 10335ft 242kts
08-Nov-20 14:14 40.166389 -104.683431 184 10000ft 217kts
08-Nov-20 14:15 40.106956 -104.684395 183 9190ft 203kts
08-Nov-20 14:16 40.053115 -104.685037 183 8329ft 192kts
08-Nov-20 14:17 40.000147 -104.685648 182 7383ft 182kts
08-Nov-20 14:18 39.952975 -104.686195 181 6983ft 172kts
08-Nov-20 14:19 39.907940 -104.686517 182 5635ft 148kts
08-Nov-20 14:20 39.880042 -104.687017 181 5365ft 26kts
08-Nov-20 14:21 39.876751 -104.685948 147 5362ft 0kts
08-Nov-20 14:22 39.875011 -104.684363 120 5358ft 13kts
08-Nov-20 14:23 39.870852 -104.683824 180 5361ft 25kts
08-Nov-20 14:24 39.865009 -104.683895 181 5364ft 16kts
08-Nov-20 14:25 39.860259 -104.683936 180 5374ft 14kts
08-Nov-20 14:26 39.856898 -104.683989 181 5374ft 8kts
08-Nov-20 14:27 39.855966 -104.680277 90 5381ft 15kts
08-Nov-20 14:28 39.855164 -104.677741 173 5381ft 6kts
08-Nov-20 14:29 39.854428 -104.677512 163 5381ft 0kts

Navigation Log

Ident Type
Flight plan parsing failed, navigation log unavailable